createdAt,value
2022-07-29T00:00:03.043Z,15.95
2022-07-29T00:02:33.179Z,15.80
2022-07-29T00:05:00.354Z,16.08
2022-07-29T00:07:27.690Z,16.02
2022-07-29T00:09:54.608Z,15.96
2022-07-29T00:12:25.269Z,16.03
2022-07-29T00:14:55.348Z,16.27
2022-07-29T00:17:23.431Z,16.52
2022-07-29T00:19:50.308Z,16.54
2022-07-29T00:22:17.235Z,16.44
2022-07-29T00:24:44.144Z,16.61
2022-07-29T00:27:11.041Z,16.76
2022-07-29T00:29:37.863Z,16.76
2022-07-29T00:32:04.907Z,16.79
2022-07-29T00:34:51.139Z,16.89
2022-07-29T00:37:17.989Z,16.97
2022-07-29T00:39:44.814Z,16.83
2022-07-29T00:42:11.747Z,16.85
2022-07-29T00:44:40.515Z,16.91
2022-07-29T00:47:08.456Z,16.91
2022-07-29T00:49:36.001Z,16.99
2022-07-29T00:52:04.890Z,16.96
2022-07-29T00:54:31.964Z,17.05
2022-07-29T00:57:02.252Z,17.00
2022-07-29T00:59:34.437Z,16.83
2022-07-29T01:02:04.150Z,16.84
2022-07-29T01:04:32.439Z,16.72
2022-07-29T01:07:01.281Z,16.80
2022-07-29T01:09:36.012Z,17.00
2022-07-29T01:12:19.873Z,16.85
2022-07-29T01:14:48.804Z,16.63
2022-07-29T01:17:24.282Z,16.97
2022-07-29T01:20:00.671Z,16.80
2022-07-29T01:22:52.692Z,17.08
2022-07-29T01:25:56.175Z,17.10
2022-07-29T01:28:50.278Z,17.08
2022-07-29T01:31:25.159Z,17.08
2022-07-29T01:34:03.269Z,17.02
2022-07-29T01:36:36.156Z,16.94
2022-07-29T01:39:31.027Z,16.89
2022-07-29T01:42:45.053Z,16.90
2022-07-29T01:45:18.193Z,16.85
2022-07-29T01:47:51.717Z,16.86
2022-07-29T01:50:22.314Z,16.82
2022-07-29T01:53:01.366Z,16.56
2022-07-29T01:55:32.087Z,16.60
2022-07-29T01:58:00.200Z,16.68
2022-07-29T02:00:28.578Z,16.75
2022-07-29T02:02:57.111Z,16.48
2022-07-29T02:05:28.290Z,16.45
2022-07-29T02:07:56.839Z,16.49
2022-07-29T02:10:26.360Z,16.37
2022-07-29T02:12:56.097Z,16.57
2022-07-29T02:15:25.337Z,16.61
2022-07-29T02:17:59.248Z,16.50
2022-07-29T02:20:27.608Z,16.60
2022-07-29T02:22:56.598Z,16.54
2022-07-29T02:25:25.437Z,16.65
2022-07-29T02:28:07.640Z,16.47
2022-07-29T02:30:38.980Z,16.44
2022-07-29T02:33:08.819Z,16.53
2022-07-29T02:35:35.863Z,16.52
2022-07-29T02:38:22.811Z,16.68
2022-07-29T02:40:51.602Z,16.51
2022-07-29T02:43:19.953Z,16.41
2022-07-29T02:45:52.045Z,16.52
2022-07-29T02:48:23.521Z,16.47
2022-07-29T02:50:56.607Z,16.46
2022-07-29T02:53:29.550Z,16.22
2022-07-29T02:56:07.842Z,16.51
2022-07-29T02:58:43.592Z,16.47
2022-07-29T03:01:21.987Z,16.47
2022-07-29T03:03:51.803Z,16.35
2022-07-29T03:06:30.904Z,16.47
2022-07-29T03:09:12.893Z,16.41
2022-07-29T03:11:49.452Z,16.38
2022-07-29T03:14:21.614Z,16.50
2022-07-29T03:16:49.934Z,16.37
2022-07-29T03:19:18.242Z,16.09
2022-07-29T03:21:45.078Z,16.13
2022-07-29T03:24:24.872Z,16.19
2022-07-29T03:26:51.894Z,16.27
2022-07-29T03:29:18.691Z,16.07
2022-07-29T03:31:46.988Z,15.96
2022-07-29T03:34:15.646Z,16.34
2022-07-29T03:36:42.778Z,16.13
2022-07-29T03:39:11.626Z,16.29
2022-07-29T03:41:40.471Z,16.02
2022-07-29T03:44:08.817Z,16.11
2022-07-29T03:46:38.255Z,16.12
2022-07-29T03:49:06.058Z,16.16
2022-07-29T03:51:33.694Z,16.18
2022-07-29T03:54:07.880Z,16.07
2022-07-29T03:56:40.841Z,16.01
2022-07-29T03:59:08.691Z,15.96
2022-07-29T04:01:37.437Z,16.20
2022-07-29T04:04:05.639Z,16.06
2022-07-29T04:06:44.482Z,16.02
2022-07-29T04:09:13.132Z,16.16
2022-07-29T04:12:01.510Z,16.20
2022-07-29T04:14:28.703Z,16.22
2022-07-29T04:16:56.258Z,16.21
2022-07-29T04:19:23.577Z,16.30
2022-07-29T04:21:50.534Z,16.27
2022-07-29T04:24:18.175Z,16.24
2022-07-29T04:26:47.848Z,16.26
2022-07-29T04:29:15.368Z,16.22
2022-07-29T04:31:43.469Z,16.11
2022-07-29T04:34:11.364Z,16.36
2022-07-29T04:36:38.332Z,16.30
2022-07-29T04:39:05.597Z,16.44
2022-07-29T04:41:33.723Z,16.61
2022-07-29T04:44:07.155Z,16.56
2022-07-29T04:46:35.696Z,16.62
2022-07-29T04:49:04.058Z,16.61
2022-07-29T04:51:31.092Z,16.64
2022-07-29T04:53:57.905Z,16.62
2022-07-29T04:56:25.001Z,16.66
2022-07-29T04:58:52.163Z,16.61
2022-07-29T05:01:19.319Z,16.73
2022-07-29T05:03:46.506Z,16.63
2022-07-29T05:06:13.382Z,16.79
2022-07-29T05:08:41.889Z,16.97
2022-07-29T05:11:12.224Z,16.78
2022-07-29T05:13:46.167Z,16.84
2022-07-29T05:16:14.817Z,16.92
2022-07-29T05:18:42.361Z,16.95
2022-07-29T05:21:09.185Z,16.86
2022-07-29T05:23:36.057Z,17.00
2022-07-29T05:26:03.016Z,16.97
2022-07-29T05:28:29.931Z,16.98
2022-07-29T05:30:57.408Z,16.96
2022-07-29T05:33:35.514Z,16.97
2022-07-29T05:36:07.881Z,16.86
2022-07-29T05:38:38.420Z,16.84
2022-07-29T05:41:06.161Z,17.04
2022-07-29T05:43:33.514Z,16.82
2022-07-29T05:46:00.531Z,17.04
2022-07-29T05:48:27.679Z,17.08
2022-07-29T05:50:54.745Z,17.02
2022-07-29T05:53:21.827Z,17.05
2022-07-29T05:55:49.806Z,16.97
2022-07-29T05:58:16.935Z,17.06
2022-07-29T06:00:43.779Z,17.29
2022-07-29T06:03:10.782Z,17.09
2022-07-29T06:05:37.839Z,17.26
2022-07-29T06:08:08.087Z,17.04
2022-07-29T06:10:38.615Z,17.16
2022-07-29T06:13:05.662Z,17.36
2022-07-29T06:15:32.720Z,17.64
2022-07-29T06:18:01.195Z,17.51
2022-07-29T06:20:32.704Z,17.67
2022-07-29T06:23:00.616Z,17.99
2022-07-29T06:25:30.433Z,18.01
2022-07-29T06:27:58.486Z,18.02
2022-07-29T06:30:25.500Z,18.23
2022-07-29T06:32:52.766Z,18.10
2022-07-29T06:35:38.783Z,18.13
2022-07-29T06:38:09.601Z,18.29
2022-07-29T06:41:08.580Z,18.11
2022-07-29T06:43:52.556Z,18.40
2022-07-29T06:46:23.111Z,18.47
2022-07-29T06:48:51.660Z,18.47
2022-07-29T06:51:21.723Z,18.79
2022-07-29T06:53:58.196Z,18.81
2022-07-29T06:56:27.637Z,19.06
2022-07-29T06:58:54.537Z,19.04
2022-07-29T07:01:21.855Z,19.07
2022-07-29T07:03:48.921Z,19.37
2022-07-29T07:06:15.876Z,19.41
2022-07-29T07:08:42.684Z,19.29
2022-07-29T07:11:09.793Z,19.59
2022-07-29T07:13:37.041Z,19.54
2022-07-29T07:16:04.612Z,19.65
2022-07-29T07:18:31.749Z,19.75
2022-07-29T07:20:59.440Z,19.72
2022-07-29T07:23:26.335Z,19.69
2022-07-29T07:25:53.342Z,19.80
2022-07-29T07:28:24.674Z,20.11
2022-07-29T07:30:52.842Z,20.16
2022-07-29T07:33:20.464Z,20.04
2022-07-29T07:35:47.716Z,20.01
2022-07-29T07:38:14.580Z,20.18
2022-07-29T07:40:42.485Z,20.41
2022-07-29T07:43:09.428Z,20.36
2022-07-29T07:45:38.363Z,20.44
2022-07-29T07:48:05.996Z,20.36
2022-07-29T07:50:33.340Z,20.70
2022-07-29T07:53:00.652Z,20.90
2022-07-29T07:55:27.731Z,20.52
2022-07-29T07:57:55.758Z,20.69
2022-07-29T08:00:23.745Z,20.75
2022-07-29T08:02:51.743Z,20.72
2022-07-29T08:05:19.307Z,20.69
2022-07-29T08:07:47.690Z,20.80
2022-07-29T08:10:38.086Z,20.90
2022-07-29T08:13:06.427Z,20.86
2022-07-29T08:15:33.907Z,20.83
2022-07-29T08:18:06.530Z,20.92
2022-07-29T08:20:36.725Z,21.32
2022-07-29T08:23:05.429Z,21.23
2022-07-29T08:25:32.861Z,21.47
2022-07-29T08:28:01.582Z,21.66
2022-07-29T08:30:28.699Z,21.45
2022-07-29T08:32:56.294Z,21.49
2022-07-29T08:35:25.208Z,21.69
2022-07-29T08:37:53.051Z,21.60
2022-07-29T08:40:32.583Z,21.63
2022-07-29T08:43:10.070Z,21.76
2022-07-29T08:45:48.830Z,21.91
2022-07-29T08:48:21.221Z,22.11
2022-07-29T08:50:52.220Z,22.00
2022-07-29T08:53:19.596Z,22.27
2022-07-29T08:55:48.903Z,22.12
2022-07-29T08:58:17.005Z,22.16
2022-07-29T09:00:51.635Z,22.27
2022-07-29T09:03:21.732Z,22.67
2022-07-29T09:05:49.071Z,22.43
2022-07-29T09:08:17.716Z,22.73
2022-07-29T09:10:45.471Z,22.83
2022-07-29T09:13:12.480Z,23.14
2022-07-29T09:15:39.531Z,23.20
2022-07-29T09:18:06.332Z,23.04
2022-07-29T09:20:51.766Z,22.98
2022-07-29T09:23:24.240Z,23.05
2022-07-29T09:25:51.803Z,23.03
2022-07-29T09:28:19.212Z,22.98
2022-07-29T09:31:00.066Z,23.11
2022-07-29T09:33:35.653Z,22.97
2022-07-29T09:36:12.842Z,22.87
2022-07-29T09:38:39.632Z,22.76
2022-07-29T09:41:09.023Z,22.66
2022-07-29T09:43:35.919Z,22.71
2022-07-29T09:46:13.201Z,22.82
2022-07-29T09:48:42.729Z,23.01
2022-07-29T09:51:23.026Z,22.81
2022-07-29T09:53:53.722Z,22.79
2022-07-29T09:56:20.634Z,22.85
2022-07-29T09:58:47.458Z,22.76
2022-07-29T10:01:15.113Z,22.57
2022-07-29T10:03:52.850Z,22.73
2022-07-29T10:06:19.770Z,23.11
2022-07-29T10:08:47.592Z,23.12
2022-07-29T10:11:16.481Z,23.29
2022-07-29T10:13:45.539Z,23.18
2022-07-29T10:16:13.861Z,23.48
2022-07-29T10:18:43.330Z,23.57
2022-07-29T10:21:11.119Z,23.71
2022-07-29T10:23:50.317Z,23.90
2022-07-29T10:26:18.013Z,23.87
2022-07-29T10:28:45.493Z,23.79
2022-07-29T10:31:21.732Z,23.88
2022-07-29T10:34:24.373Z,23.87
2022-07-29T10:37:11.446Z,24.03
2022-07-29T10:40:25.842Z,23.98
2022-07-29T10:42:56.870Z,23.86
2022-07-29T10:45:24.944Z,23.66
2022-07-29T10:48:05.538Z,23.84
2022-07-29T10:51:04.629Z,23.87
2022-07-29T10:53:50.162Z,23.64
2022-07-29T10:56:34.308Z,24.12
2022-07-29T10:59:27.116Z,23.99
2022-07-29T11:02:35.363Z,23.92
2022-07-29T11:04:50.412Z,23.54
2022-07-29T11:07:17.471Z,23.58
2022-07-29T11:09:46.510Z,23.87
2022-07-29T11:12:39.362Z,23.81
2022-07-29T11:15:09.707Z,24.09
2022-07-29T11:17:54.904Z,24.34
2022-07-29T11:20:36.594Z,24.36
2022-07-29T11:23:25.237Z,24.37
2022-07-29T11:26:14.401Z,24.18
2022-07-29T11:28:53.200Z,24.46
2022-07-29T11:31:33.613Z,24.23
2022-07-29T11:34:20.930Z,24.25
2022-07-29T11:37:06.399Z,24.48
2022-07-29T11:39:36.587Z,24.36
2022-07-29T11:42:32.614Z,24.67
2022-07-29T11:45:43.923Z,24.55
2022-07-29T11:48:29.566Z,24.76
2022-07-29T11:50:59.965Z,24.78
2022-07-29T11:53:28.906Z,24.82
2022-07-29T11:56:00.605Z,24.88
2022-07-29T11:58:29.509Z,25.06
2022-07-29T12:00:57.792Z,24.96
2022-07-29T12:03:33.020Z,25.14
2022-07-29T12:06:03.187Z,25.38
2022-07-29T12:08:30.806Z,25.34
2022-07-29T12:10:58.594Z,25.58
2022-07-29T12:13:37.564Z,25.86
2022-07-29T12:16:05.492Z,26.12
2022-07-29T12:18:33.227Z,25.93
2022-07-29T12:21:05.204Z,26.28
2022-07-29T12:23:35.627Z,26.71
2022-07-29T12:26:07.637Z,26.42
2022-07-29T12:28:39.824Z,26.79
2022-07-29T12:31:13.885Z,26.87
2022-07-29T12:33:40.935Z,27.13
2022-07-29T12:36:12.994Z,27.27
2022-07-29T12:38:44.315Z,27.28
2022-07-29T12:41:11.907Z,27.51
2022-07-29T12:43:53.602Z,27.81
2022-07-29T12:46:20.599Z,27.79
2022-07-29T12:48:55.665Z,27.55
2022-07-29T12:51:32.424Z,27.79
2022-07-29T12:54:16.816Z,27.70
2022-07-29T12:56:45.653Z,27.82
2022-07-29T12:59:23.946Z,27.36
2022-07-29T13:01:53.138Z,26.95
2022-07-29T13:04:27.474Z,27.03
2022-07-29T13:07:07.488Z,27.37
2022-07-29T13:09:43.131Z,27.12
2022-07-29T13:12:11.853Z,27.34
2022-07-29T13:14:49.603Z,27.45
2022-07-29T13:17:17.456Z,27.18
2022-07-29T13:19:47.744Z,27.26
2022-07-29T13:22:16.929Z,26.96
2022-07-29T13:24:50.850Z,27.47
2022-07-29T13:27:19.429Z,27.18
2022-07-29T13:29:47.436Z,27.23
2022-07-29T13:32:14.556Z,27.09
2022-07-29T13:34:41.895Z,26.95
2022-07-29T13:37:08.864Z,27.19
2022-07-29T13:39:35.825Z,27.13
2022-07-29T13:42:02.880Z,27.13
2022-07-29T13:44:29.711Z,27.16
2022-07-29T13:46:57.014Z,27.30
2022-07-29T13:49:23.981Z,27.23
2022-07-29T13:51:51.053Z,27.51
2022-07-29T13:54:17.897Z,27.45
2022-07-29T13:56:44.692Z,27.56
2022-07-29T13:59:14.023Z,27.80
2022-07-29T14:01:43.194Z,27.41
2022-07-29T14:04:14.348Z,27.40
2022-07-29T14:06:41.915Z,27.66
2022-07-29T14:09:11.729Z,27.89
2022-07-29T14:11:39.461Z,27.89
2022-07-29T14:14:06.414Z,27.63
2022-07-29T14:16:33.313Z,27.38
2022-07-29T14:19:00.813Z,27.28
2022-07-29T14:21:27.768Z,27.56
2022-07-29T14:23:55.615Z,27.60
2022-07-29T14:26:24.391Z,27.52
2022-07-29T14:28:51.366Z,27.24
2022-07-29T14:31:18.360Z,27.35
2022-07-29T14:33:46.207Z,27.07
2022-07-29T14:36:16.157Z,27.29
2022-07-29T14:38:42.989Z,27.31
2022-07-29T14:41:10.096Z,27.43
2022-07-29T14:43:37.297Z,27.73
2022-07-29T14:46:08.335Z,27.43
2022-07-29T14:48:36.053Z,27.29
2022-07-29T14:51:04.952Z,27.43
2022-07-29T14:53:32.351Z,27.68
2022-07-29T14:56:10.383Z,27.86
2022-07-29T14:58:50.160Z,27.61
2022-07-29T15:01:19.500Z,27.17
2022-07-29T15:03:46.797Z,27.56
2022-07-29T15:06:13.607Z,27.66
2022-07-29T15:08:40.530Z,27.59
2022-07-29T15:11:07.352Z,27.62
2022-07-29T15:13:34.722Z,27.89
2022-07-29T15:16:01.787Z,27.68
2022-07-29T15:18:28.746Z,27.17
2022-07-29T15:20:55.585Z,27.11
2022-07-29T15:23:22.468Z,26.89
2022-07-29T15:25:49.277Z,26.98
2022-07-29T15:28:16.242Z,26.72
2022-07-29T15:30:43.156Z,27.14
2022-07-29T15:33:10.632Z,27.61
2022-07-29T15:35:40.268Z,27.58
2022-07-29T15:38:08.760Z,27.47
2022-07-29T15:40:37.215Z,27.26
2022-07-29T15:43:07.250Z,27.47
2022-07-29T15:46:06.576Z,27.43
2022-07-29T15:48:33.575Z,27.39
2022-07-29T15:51:01.019Z,27.28
2022-07-29T15:53:28.003Z,27.36
2022-07-29T15:55:54.935Z,27.54
2022-07-29T15:58:22.696Z,27.46
2022-07-29T16:00:50.124Z,27.45
2022-07-29T16:03:17.342Z,27.37
2022-07-29T16:05:44.249Z,27.46
2022-07-29T16:08:11.242Z,27.53
2022-07-29T16:10:38.112Z,27.80
2022-07-29T16:13:04.993Z,27.05
2022-07-29T16:15:31.877Z,27.55
2022-07-29T16:17:58.800Z,27.73
2022-07-29T16:20:25.786Z,27.59
2022-07-29T16:22:53.362Z,27.82
2022-07-29T16:25:20.443Z,27.71
2022-07-29T16:27:47.288Z,27.71
2022-07-29T16:30:14.140Z,28.08
2022-07-29T16:32:41.273Z,28.01
2022-07-29T16:35:08.823Z,28.13
2022-07-29T16:37:37.184Z,28.10
2022-07-29T16:40:06.266Z,28.29
2022-07-29T16:42:48.652Z,28.36
2022-07-29T16:45:17.997Z,28.31
2022-07-29T16:47:47.247Z,28.08
2022-07-29T16:50:14.276Z,28.19
2022-07-29T16:52:41.320Z,28.31
2022-07-29T16:55:08.344Z,28.37
2022-07-29T16:57:35.222Z,28.59
2022-07-29T17:00:02.250Z,28.71
2022-07-29T17:02:29.150Z,28.87
2022-07-29T17:04:56.342Z,28.86
2022-07-29T17:07:23.660Z,28.70
2022-07-29T17:09:55.114Z,28.43
2022-07-29T17:12:22.532Z,28.40
2022-07-29T17:14:49.398Z,28.59
2022-07-29T17:17:20.884Z,28.92
2022-07-29T17:20:05.248Z,28.66
2022-07-29T17:22:32.233Z,28.64
2022-07-29T17:24:59.167Z,28.78
2022-07-29T17:27:27.735Z,28.93
2022-07-29T17:29:54.569Z,28.10
2022-07-29T17:32:22.085Z,28.28
2022-07-29T17:34:48.998Z,28.09
2022-07-29T17:37:15.943Z,28.05
2022-07-29T17:39:43.112Z,27.97
2022-07-29T17:42:11.973Z,27.86
2022-07-29T17:44:39.508Z,26.98
2022-07-29T17:47:07.910Z,27.49
2022-07-29T17:49:42.393Z,27.20
2022-07-29T17:52:09.380Z,26.94
2022-07-29T17:54:36.299Z,26.82
2022-07-29T17:57:03.191Z,26.56
2022-07-29T17:59:30.013Z,26.61
2022-07-29T18:01:56.918Z,26.64
2022-07-29T18:04:23.891Z,26.59
2022-07-29T18:06:51.508Z,26.65
2022-07-29T18:09:18.500Z,26.67
2022-07-29T18:11:46.246Z,26.46
2022-07-29T18:14:13.543Z,26.56
2022-07-29T18:16:40.810Z,26.65
2022-07-29T18:19:07.799Z,26.27
2022-07-29T18:21:42.667Z,26.10
2022-07-29T18:24:22.592Z,25.68
2022-07-29T18:26:49.401Z,25.40
2022-07-29T18:29:16.256Z,24.73
2022-07-29T18:31:43.077Z,24.79
2022-07-29T18:34:09.941Z,24.45
2022-07-29T18:36:37.179Z,24.22
2022-07-29T18:39:04.084Z,24.26
2022-07-29T18:41:31.363Z,24.02
2022-07-29T18:43:58.217Z,23.72
2022-07-29T18:46:25.488Z,23.38
2022-07-29T18:48:52.654Z,23.59
2022-07-29T18:51:19.861Z,23.74
2022-07-29T18:53:46.847Z,23.65
2022-07-29T18:56:13.708Z,23.69
2022-07-29T18:58:40.625Z,23.46
2022-07-29T19:01:07.539Z,23.46
2022-07-29T19:03:34.642Z,23.24
2022-07-29T19:06:01.497Z,23.27
2022-07-29T19:08:28.333Z,23.29
2022-07-29T19:10:55.277Z,23.27
2022-07-29T19:13:22.350Z,23.23
2022-07-29T19:15:49.227Z,23.22
2022-07-29T19:18:16.178Z,23.03
2022-07-29T19:20:43.053Z,22.71
2022-07-29T19:23:09.945Z,22.44
2022-07-29T19:25:37.574Z,22.35
2022-07-29T19:28:20.407Z,22.14
2022-07-29T19:30:47.295Z,22.06
2022-07-29T19:33:17.380Z,22.04
2022-07-29T19:35:45.302Z,21.55
2022-07-29T19:38:12.570Z,21.31
2022-07-29T19:40:39.408Z,21.36
2022-07-29T19:43:50.721Z,21.03
2022-07-29T19:45:53.626Z,21.11
2022-07-29T19:48:20.536Z,21.21
2022-07-29T19:50:47.418Z,21.02
2022-07-29T19:53:14.388Z,21.03
2022-07-29T19:55:42.423Z,20.75
2022-07-29T19:58:09.311Z,20.84
2022-07-29T20:00:36.181Z,20.92
2022-07-29T20:03:04.772Z,20.88
2022-07-29T20:05:31.809Z,20.66
2022-07-29T20:07:58.743Z,20.61
2022-07-29T20:10:25.791Z,20.36
2022-07-29T20:12:53.840Z,20.24
2022-07-29T20:15:22.397Z,20.25
2022-07-29T20:17:51.807Z,20.06
2022-07-29T20:20:23.086Z,19.79
2022-07-29T20:22:49.984Z,19.70
2022-07-29T20:25:16.848Z,19.56
2022-07-29T20:27:43.730Z,19.60
2022-07-29T20:30:13.858Z,19.47
2022-07-29T20:32:41.337Z,19.45
2022-07-29T20:35:09.950Z,19.75
2022-07-29T20:37:52.233Z,19.91
2022-07-29T20:40:24.749Z,19.90
2022-07-29T20:42:51.966Z,20.06
2022-07-29T20:45:20.066Z,19.93
2022-07-29T20:47:47.057Z,19.84
2022-07-29T20:50:13.969Z,19.85
2022-07-29T20:52:41.452Z,19.78
2022-07-29T20:55:09.281Z,19.77
2022-07-29T20:57:38.707Z,19.88
2022-07-29T21:00:08.117Z,19.76
2022-07-29T21:02:35.063Z,19.60
2022-07-29T21:05:02.040Z,19.62
2022-07-29T21:07:28.928Z,19.08
2022-07-29T21:09:55.777Z,18.61
2022-07-29T21:12:22.672Z,18.41
2022-07-29T21:14:49.815Z,18.70
2022-07-29T21:17:19.448Z,18.64
2022-07-29T21:19:52.425Z,18.48
2022-07-29T21:22:21.987Z,18.38
2022-07-29T21:24:50.221Z,18.38
2022-07-29T21:27:38.412Z,18.67
2022-07-29T21:30:07.746Z,19.02
2022-07-29T21:32:34.760Z,18.94
2022-07-29T21:35:01.645Z,18.97
2022-07-29T21:37:28.546Z,19.04
2022-07-29T21:39:55.512Z,18.99
2022-07-29T21:42:22.606Z,19.09
2022-07-29T21:44:49.495Z,19.02
2022-07-29T21:47:16.410Z,18.89
2022-07-29T21:49:43.414Z,18.87
2022-07-29T21:52:10.211Z,18.91
2022-07-29T21:54:38.471Z,18.85
2022-07-29T21:57:05.671Z,18.83
2022-07-29T21:59:32.673Z,18.78
2022-07-29T22:02:01.060Z,18.71
2022-07-29T22:04:29.101Z,18.58
2022-07-29T22:06:56.892Z,18.69
2022-07-29T22:09:24.818Z,18.57
2022-07-29T22:11:51.698Z,18.41
2022-07-29T22:14:18.612Z,18.35
2022-07-29T22:16:46.520Z,18.28
2022-07-29T22:19:14.546Z,18.25
2022-07-29T22:21:41.802Z,18.23
2022-07-29T22:24:10.339Z,18.13
2022-07-29T22:26:38.278Z,18.31
2022-07-29T22:29:05.442Z,18.32
2022-07-29T22:31:32.337Z,18.35
2022-07-29T22:33:59.168Z,18.22
2022-07-29T22:36:26.933Z,18.16
2022-07-29T22:38:53.851Z,18.11
2022-07-29T22:41:20.765Z,17.99
2022-07-29T22:43:47.621Z,17.90
2022-07-29T22:46:14.488Z,17.83
2022-07-29T22:48:41.378Z,17.80
2022-07-29T22:51:08.286Z,17.73
2022-07-29T22:53:36.020Z,17.71
2022-07-29T22:56:03.041Z,17.60
2022-07-29T22:58:29.843Z,17.56
2022-07-29T23:00:56.765Z,17.42
2022-07-29T23:03:23.633Z,17.42
2022-07-29T23:05:51.846Z,17.46
2022-07-29T23:08:19.746Z,17.45
2022-07-29T23:10:46.895Z,17.44
2022-07-29T23:13:13.905Z,17.40
2022-07-29T23:15:41.360Z,17.33
2022-07-29T23:18:08.460Z,17.31
2022-07-29T23:20:35.641Z,17.35
2022-07-29T23:23:02.549Z,17.28
2022-07-29T23:25:29.389Z,17.27
2022-07-29T23:27:56.570Z,17.26
2022-07-29T23:30:23.579Z,17.21
2022-07-29T23:32:50.524Z,17.11
2022-07-29T23:35:17.489Z,17.12
2022-07-29T23:37:44.382Z,17.17
2022-07-29T23:40:14.549Z,17.16
2022-07-29T23:42:42.676Z,17.17
2022-07-29T23:45:11.223Z,17.16
2022-07-29T23:47:38.135Z,17.10
2022-07-29T23:50:06.920Z,17.05
2022-07-29T23:52:33.925Z,17.02
2022-07-29T23:55:36.801Z,17.03
2022-07-29T23:57:49.426Z,16.94
